Time;durP1;ratioP1;P1;durP2;ratioP2;P2;SDS_P1;SDS_P2;PMS_P1;PMS_P2;Temp;Humidity;BMP_temperature;BMP_pressure;BME280_temperature;BME280_humidity;BME280_pressure;Samples;Min_cycle;Max_cycle;Signal;HPM_P1;HPM_P2
2023/09/15 00:01:11;;;;;;;2.60;2.10;;;;;;;11.81;97.31;101445.31;4968314;28;20237;-81
2023/09/15 00:03:37;;;;;;;2.73;1.83;;;;;;;11.80;97.13;101443.56;4947770;28;20254;-81
2023/09/15 00:06:04;;;;;;;3.57;1.90;;;;;;;11.79;97.57;101446.31;4954477;28;20209;-81
2023/09/15 00:08:31;;;;;;;2.50;2.00;;;;;;;11.78;97.01;101450.81;4950666;28;20216;-81
2023/09/15 00:10:57;;;;;;;1.50;1.40;;;;;;;11.74;96.62;101445.69;4969972;28;20262;-81
2023/09/15 00:13:24;;;;;;;1.23;1.00;;;;;;;11.71;96.49;101448.50;4955244;28;20222;-80
2023/09/15 00:15:51;;;;;;;1.47;1.20;;;;;;;11.67;96.31;101444.28;4949381;28;20217;-81
2023/09/15 00:18:19;;;;;;;2.10;1.43;;;;;;;11.63;96.25;101448.94;4969010;28;20239;-81
2023/09/15 00:20:46;;;;;;;1.60;1.50;;;;;;;11.59;95.89;101446.53;4950277;28;20228;-81
2023/09/15 00:23:12;;;;;;;2.47;1.70;;;;;;;11.53;95.86;101449.53;4946561;28;20211;-81
2023/09/15 00:25:39;;;;;;;3.73;1.83;;;;;;;11.49;96.14;101441.69;4966427;28;20215;-81
2023/09/15 00:28:09;;;;;;;6.57;1.70;;;;;;;11.44;95.93;101438.44;4976968;28;20211;-81
2023/09/15 00:30:37;;;;;;;2.27;1.50;;;;;;;11.39;95.72;101437.81;4965233;28;20597;-81
2023/09/15 00:33:04;;;;;;;2.90;1.70;;;;;;;11.33;95.87;101445.25;4954111;28;20217;-81
2023/09/15 00:35:32;;;;;;;2.60;1.67;;;;;;;11.28;96.20;101450.00;4946493;28;20212;-81
2023/09/15 00:37:59;;;;;;;2.57;1.30;;;;;;;11.23;96.36;101444.91;4959633;28;20199;-82
2023/09/15 00:40:26;;;;;;;2.00;1.70;;;;;;;11.22;96.73;101445.84;4957389;28;20233;-81
2023/09/15 00:42:53;;;;;;;4.03;1.50;;;;;;;11.21;96.71;101443.25;4954668;28;20573;-80
2023/09/15 00:45:21;;;;;;;3.50;1.80;;;;;;;11.19;97.01;101446.00;4952921;23;20230;-74
2023/09/15 00:47:50;;;;;;;3.17;1.90;;;;;;;11.20;97.37;101444.22;4950223;28;20310;-75
2023/09/15 00:50:19;;;;;;;5.03;2.53;;;;;;;11.19;97.66;101443.34;4967628;28;20205;-75
2023/09/15 00:52:50;;;;;;;2.97;2.00;;;;;;;11.19;97.62;101448.66;4943766;28;20246;-74
2023/09/15 00:55:19;;;;;;;2.13;1.50;;;;;;;11.13;97.05;101441.84;4948858;28;20214;-75
2023/09/15 00:57:46;;;;;;;1.97;1.60;;;;;;;11.08;96.60;101438.59;4978956;28;20229;-75
2023/09/15 01:00:14;;;;;;;3.67;1.33;;;;;;;11.00;95.89;101446.13;4954586;28;20659;-75
2023/09/15 01:02:43;;;;;;;2.57;1.50;;;;;;;10.88;95.48;101436.09;4947882;28;20484;-73
2023/09/15 01:05:11;;;;;;;1.90;1.40;;;;;;;10.80;95.99;101438.28;4946625;28;20267;-75
2023/09/15 01:07:38;;;;;;;1.80;1.53;;;;;;;10.74;96.80;101439.50;4947291;28;20238;-74
2023/09/15 01:10:07;;;;;;;2.33;1.67;;;;;;;10.71;97.46;101436.97;4949175;28;20212;-74
2023/09/15 01:12:34;;;;;;;2.83;1.57;;;;;;;10.70;98.23;101437.06;4945881;28;20210;-74
2023/09/15 01:15:03;;;;;;;2.67;1.70;;;;;;;10.69;98.44;101430.88;4941254;28;20213;-74
2023/09/15 01:17:36;;;;;;;3.07;2.00;;;;;;;10.67;98.77;101431.88;4944080;28;20251;-74
2023/09/15 01:20:10;;;;;;;3.60;1.80;;;;;;;10.67;99.17;101431.88;4943174;28;20229;-73
2023/09/15 01:22:59;;;;;;;2.97;1.80;;;;;;;10.66;99.60;101433.69;4958456;28;20241;-74
2023/09/15 01:26:11;;;;;;;2.80;1.43;;;;;;;10.67;99.32;101434.53;4947633;28;20213;-75
2023/09/15 01:28:58;;;;;;;2.33;1.80;;;;;;;10.63;99.16;101430.31;4946448;28;20721;-74
2023/09/15 01:31:26;;;;;;;2.27;1.83;;;;;;;10.60;99.47;101428.66;4947249;28;20208;-75
2023/09/15 01:33:53;;;;;;;3.37;1.63;;;;;;;10.58;99.88;101427.00;4945594;28;20210;-76
2023/09/15 01:36:19;;;;;;;3.47;2.17;;;;;;;10.57;99.93;101425.31;4946205;28;20210;-74
2023/09/15 01:38:46;;;;;;;5.40;1.60;;;;;;;10.56;100.00;101427.13;4953894;28;20221;-74
2023/09/15 01:41:12;;;;;;;4.30;2.07;;;;;;;10.56;100.00;101426.25;4941428;28;20238;-74
2023/09/15 01:43:39;;;;;;;4.77;2.33;;;;;;;10.54;100.00;101429.00;4945600;28;20709;-74
2023/09/15 01:46:05;;;;;;;2.37;2.00;;;;;;;10.53;100.00;101429.06;4942140;28;20217;-74
2023/09/15 01:48:34;;;;;;;2.80;1.97;;;;;;;10.52;100.00;101432.66;4946486;28;20226;-74
2023/09/15 01:51:01;;;;;;;6.13;2.37;;;;;;;10.50;100.00;101430.06;4950716;28;20209;-74
2023/09/15 01:53:27;;;;;;;2.50;2.30;;;;;;;10.50;99.94;101423.88;4938826;28;20229;-75
2023/09/15 01:55:54;;;;;;;3.20;1.87;;;;;;;10.44;100.00;101420.59;4943664;28;20218;-74
2023/09/15 01:58:20;;;;;;;4.80;2.30;;;;;;;10.40;100.00;101424.34;4944063;28;20231;-74
2023/09/15 02:00:48;;;;;;;4.33;2.00;;;;;;;10.38;100.00;101415.59;4944409;28;20229;-74
2023/09/15 02:03:16;;;;;;;3.90;2.07;;;;;;;10.36;100.00;101413.94;4942287;28;20213;-74
2023/09/15 02:05:44;;;;;;;3.13;2.10;;;;;;;10.35;100.00;101410.41;4945570;28;20210;-74
2023/09/15 02:08:10;;;;;;;4.13;1.97;;;;;;;10.34;100.00;101413.16;4938418;28;20237;-74
2023/09/15 02:10:37;;;;;;;4.37;2.10;;;;;;;10.33;100.00;101408.75;4946485;28;20213;-74
2023/09/15 02:13:04;;;;;;;4.07;2.00;;;;;;;10.31;100.00;101418.63;4941105;28;20206;-74
2023/09/15 02:15:30;;;;;;;3.93;2.27;;;;;;;10.30;100.00;101406.25;4966842;28;20543;-75
2023/09/15 02:17:59;;;;;;;7.13;2.90;;;;;;;10.29;100.00;101410.72;4944824;28;20247;-76
2023/09/15 02:20:25;;;;;;;3.20;2.53;;;;;;;10.29;100.00;101409.84;4940547;28;20323;-74
2023/09/15 02:22:53;;;;;;;2.67;2.10;;;;;;;10.28;100.00;101408.13;4965374;28;20212;-74
2023/09/15 02:25:19;;;;;;;4.73;2.07;;;;;;;10.24;100.00;101412.72;4952864;28;20217;-74
2023/09/15 02:27:46;;;;;;;3.80;1.90;;;;;;;10.19;100.00;101408.59;4949089;28;20230;-74
2023/09/15 02:30:12;;;;;;;2.37;1.60;;;;;;;10.08;99.73;101411.75;4946765;28;20201;-74
2023/09/15 02:32:39;;;;;;;1.87;1.70;;;;;;;10.00;99.06;101408.59;4955206;28;20217;-74
2023/09/15 02:35:06;;;;;;;2.03;1.90;;;;;;;9.92;99.65;101406.31;4949214;28;20213;-74
2023/09/15 02:37:33;;;;;;;5.77;2.30;;;;;;;9.88;100.00;101410.03;4943303;28;20237;-74
2023/09/15 02:40:00;;;;;;;4.10;2.10;;;;;;;9.87;100.00;101408.31;4946738;28;20209;-75
2023/09/15 02:42:27;;;;;;;4.20;2.57;;;;;;;9.86;100.00;101409.25;4938676;28;20216;-73
2023/09/15 02:44:53;;;;;;;3.60;2.60;;;;;;;9.87;100.00;101408.31;4962468;28;20279;-74
2023/09/15 02:47:20;;;;;;;3.93;2.40;;;;;;;9.87;100.00;101399.47;4944320;28;20247;-74
2023/09/15 02:49:46;;;;;;;3.13;2.53;;;;;;;9.88;100.00;101403.84;4963970;28;20240;-74
2023/09/15 02:52:13;;;;;;;2.50;2.30;;;;;;;9.85;100.00;101410.22;4954462;28;20593;-74
2023/09/15 02:54:39;;;;;;;4.80;2.60;;;;;;;9.85;100.00;101406.69;4948067;28;20210;-74
2023/09/15 02:57:07;;;;;;;4.90;2.43;;;;;;;9.84;100.00;101411.16;4946434;28;20266;-74
2023/09/15 02:59:33;;;;;;;4.63;2.60;;;;;;;9.85;100.00;101409.34;4974624;28;20203;-74
2023/09/15 03:02:00;;;;;;;3.07;2.30;;;;;;;9.85;100.00;101406.69;4953147;28;20251;-74
2023/09/15 03:04:27;;;;;;;2.83;2.30;;;;;;;9.85;100.00;101404.91;4949991;28;20212;-75
2023/09/15 03:06:53;;;;;;;3.73;2.40;;;;;;;9.85;100.00;101406.69;4946602;28;20208;-74
2023/09/15 03:09:20;;;;;;;4.53;2.80;;;;;;;9.87;100.00;101407.47;4945773;28;20229;-74
2023/09/15 03:11:47;;;;;;;3.90;2.30;;;;;;;9.87;100.00;101402.13;4946659;28;20260;-74
2023/09/15 03:14:16;;;;;;;4.17;2.40;;;;;;;9.87;100.00;101396.81;4947448;28;20210;-75
2023/09/15 03:16:43;;;;;;;4.30;2.63;;;;;;;9.87;100.00;101405.66;4948920;28;20256;-74
2023/09/15 03:19:09;;;;;;;4.20;2.20;;;;;;;9.87;100.00;101404.78;4957251;28;20236;-74
2023/09/15 03:21:35;;;;;;;2.27;2.00;;;;;;;9.86;100.00;101395.94;4944058;28;20643;-74
2023/09/15 03:24:02;;;;;;;4.40;2.13;;;;;;;9.87;100.00;101402.13;4962773;28;20213;-74
2023/09/15 03:26:29;;;;;;;3.90;2.00;;;;;;;9.85;100.00;101398.72;4942889;28;20654;-74
2023/09/15 03:28:55;;;;;;;5.47;2.17;;;;;;;9.82;100.00;101394.41;4948972;28;20235;-74
2023/09/15 03:31:23;;;;;;;4.53;2.03;;;;;;;9.80;100.00;101390.94;4946877;28;20216;-74
2023/09/15 03:33:50;;;;;;;3.60;2.10;;;;;;;9.77;100.00;101390.22;4941020;28;20206;-74
2023/09/15 03:36:16;;;;;;;4.17;2.20;;;;;;;9.71;100.00;101381.59;4964994;28;20236;-75
2023/09/15 03:38:43;;;;;;;4.83;2.10;;;;;;;9.70;100.00;101392.31;4959831;28;20226;-74
2023/09/15 03:41:09;;;;;;;4.13;2.37;;;;;;;9.67;100.00;101388.00;4946074;28;20236;-74
2023/09/15 03:43:36;;;;;;;3.03;2.20;;;;;;;9.65;100.00;101386.38;4971727;28;20229;-73
2023/09/15 03:46:03;;;;;;;3.87;2.37;;;;;;;9.64;100.00;101380.19;4951055;28;20220;-74
2023/09/15 03:48:31;;;;;;;5.43;2.40;;;;;;;9.63;100.00;101388.25;4953022;28;20226;-74
2023/09/15 03:50:58;;;;;;;2.97;2.20;;;;;;;9.62;100.00;101376.72;4950521;28;20216;-74
2023/09/15 03:53:24;;;;;;;4.50;2.43;;;;;;;9.62;100.00;101373.22;4948969;28;20206;-74
2023/09/15 03:55:50;;;;;;;3.47;2.23;;;;;;;9.62;100.00;101384.72;4959785;28;20213;-75
2023/09/15 03:58:17;;;;;;;3.90;2.90;;;;;;;9.61;100.00;101375.00;4952828;28;20237;-73
2023/09/15 04:00:44;;;;;;;3.23;2.40;;;;;;;9.61;100.00;101380.31;4944736;28;20698;-74
2023/09/15 04:03:11;;;;;;;7.27;3.17;;;;;;;9.60;100.00;101369.75;4945849;28;20287;-74
2023/09/15 04:05:39;;;;;;;3.03;2.20;;;;;;;9.59;100.00;101378.66;4945367;28;20699;-73
2023/09/15 04:08:05;;;;;;;2.80;2.37;;;;;;;9.55;100.00;101375.28;4946531;28;20225;-74
2023/09/15 04:10:32;;;;;;;2.90;1.87;;;;;;;9.53;100.00;101377.16;4962459;28;20207;-73
2023/09/15 04:12:58;;;;;;;2.17;1.80;;;;;;;9.47;100.00;101374.81;4952272;28;20212;-74
2023/09/15 04:15:25;;;;;;;1.43;1.33;;;;;;;9.43;100.00;101373.22;4952101;28;20217;-74
2023/09/15 04:17:51;;;;;;;3.30;1.80;;;;;;;9.41;100.00;101377.75;4959034;28;20294;-74
2023/09/15 04:20:18;;;;;;;2.13;1.57;;;;;;;9.37;100.00;101369.03;4946827;28;20241;-74
2023/09/15 04:22:45;;;;;;;3.47;2.17;;;;;;;9.35;100.00;101367.38;4946423;28;20590;-74
2023/09/15 04:25:12;;;;;;;3.57;1.90;;;;;;;9.33;100.00;101371.91;4944051;28;20223;-74
2023/09/15 04:27:38;;;;;;;2.70;1.90;;;;;;;9.32;100.00;101370.19;4953230;28;20279;-73
2023/09/15 04:30:06;;;;;;;4.83;2.43;;;;;;;9.32;100.00;101370.19;4944969;28;20678;-74
2023/09/15 04:32:33;;;;;;;4.53;2.57;;;;;;;9.31;100.00;101371.16;4944077;28;20208;-74
2023/09/15 04:34:59;;;;;;;4.50;3.40;;;;;;;9.30;100.00;101372.94;4941337;28;20632;-74
2023/09/15 04:37:26;;;;;;;5.13;2.77;;;;;;;9.28;100.00;101382.78;4944887;28;20214;-74
2023/09/15 04:39:54;;;;;;;2.43;1.93;;;;;;;9.28;100.00;101372.16;4946498;28;20217;-74
2023/09/15 04:42:21;;;;;;;2.17;1.87;;;;;;;9.26;100.00;101375.81;4943633;28;20925;-73
2023/09/15 04:44:47;;;;;;;3.00;1.70;;;;;;;9.24;100.00;101372.34;4955122;28;20278;-73
2023/09/15 04:47:14;;;;;;;3.47;2.00;;;;;;;9.22;100.00;101383.06;4944382;28;20323;-74
2023/09/15 04:49:41;;;;;;;2.93;2.37;;;;;;;9.21;100.00;101376.00;4945715;28;20918;-73
2023/09/15 04:52:07;;;;;;;3.97;2.30;;;;;;;9.19;100.00;101372.56;4948641;28;20208;-74
2023/09/15 04:54:34;;;;;;;4.43;2.50;;;;;;;9.19;100.00;101371.69;4943196;28;20216;-73
2023/09/15 04:57:01;;;;;;;3.63;2.70;;;;;;;9.16;100.00;101372.69;4944024;28;20221;-74
2023/09/15 04:59:28;;;;;;;3.03;2.67;;;;;;;9.16;100.00;101374.47;4935957;28;20416;-73
2023/09/15 05:01:54;;;;;;;4.33;2.90;;;;;;;9.14;100.00;101369.25;4948988;28;20225;-74
2023/09/15 05:04:21;;;;;;;3.47;2.63;;;;;;;9.12;100.00;101375.59;4942755;28;20207;-74
2023/09/15 05:06:47;;;;;;;3.33;2.60;;;;;;;9.11;100.00;101379.19;4946224;28;20296;-73
2023/09/15 05:09:18;;;;;;;2.23;1.90;;;;;;;9.09;100.00;101376.59;4943269;28;20268;-74
2023/09/15 05:11:44;;;;;;;2.20;1.80;;;;;;;9.03;100.00;101380.38;4941128;28;20713;-73
2023/09/15 05:14:12;;;;;;;4.77;2.33;;;;;;;9.00;100.00;101377.84;4934064;28;20439;-73
2023/09/15 05:16:39;;;;;;;5.40;2.87;;;;;;;8.99;100.00;101381.44;4937968;28;20205;-73
2023/09/15 05:19:05;;;;;;;4.77;2.80;;;;;;;9.00;100.00;101383.16;4942461;28;20252;-73
2023/09/15 05:21:31;;;;;;;4.77;2.37;;;;;;;9.00;100.00;101382.28;4939929;28;20236;-74
2023/09/15 05:23:59;;;;;;;4.37;2.40;;;;;;;9.03;100.00;101376.84;4947277;28;20231;-73
2023/09/15 05:26:25;;;;;;;2.37;2.10;;;;;;;9.03;100.00;101388.34;4948666;28;20284;-76
2023/09/15 05:28:52;;;;;;;2.53;1.97;;;;;;;9.04;100.00;101387.41;4955164;28;20225;-76
2023/09/15 05:31:25;;;;;;;3.37;2.10;;;;;;;9.04;100.00;101378.56;4954186;28;20217;-76
2023/09/15 05:33:51;;;;;;;5.13;2.37;;;;;;;9.06;100.00;101384.69;4949387;28;20309;-76
2023/09/15 05:36:18;;;;;;;3.07;2.53;;;;;;;9.09;100.00;101373.06;4950147;28;20209;-76
2023/09/15 05:38:45;;;;;;;3.90;2.40;;;;;;;9.13;100.00;101378.19;4950370;28;20229;-76
2023/09/15 05:41:12;;;;;;;5.10;3.10;;;;;;;9.15;100.00;101381.59;4942166;28;20236;-76
2023/09/15 05:43:39;;;;;;;5.47;3.00;;;;;;;9.20;100.00;101384.06;4944084;28;20212;-76
2023/09/15 05:46:06;;;;;;;6.97;3.30;;;;;;;9.23;100.00;101390.09;4947579;28;20222;-76
2023/09/15 05:48:33;;;;;;;4.63;3.60;;;;;;;9.29;100.00;101383.66;4952694;28;20232;-76
2023/09/15 05:51:03;;;;;;;5.27;3.23;;;;;;;9.37;100.00;101386.78;4940351;28;20236;-76
2023/09/15 05:53:29;;;;;;;4.87;3.30;;;;;;;9.42;100.00;101387.44;4950667;28;20303;-76
2023/09/15 05:55:57;;;;;;;5.10;3.73;;;;;;;9.49;100.00;101396.00;4944801;28;20212;-76
2023/09/15 05:58:23;;;;;;;7.17;3.93;;;;;;;9.56;100.00;101387.66;4949509;28;20578;-77
2023/09/15 06:00:50;;;;;;;7.63;4.00;;;;;;;9.62;100.00;101382.06;4960255;28;20205;-76
2023/09/15 06:03:17;;;;;;;6.13;3.33;;;;;;;9.70;100.00;101390.50;4958059;28;20981;-76
2023/09/15 06:05:44;;;;;;;5.40;3.63;;;;;;;9.77;100.00;101387.56;4948597;28;20557;-76
2023/09/15 06:08:11;;;;;;;5.37;3.63;;;;;;;9.86;100.00;101387.09;4952787;28;20315;-77
2023/09/15 06:10:39;;;;;;;6.07;3.80;;;;;;;9.95;100.00;101389.34;4953630;28;20218;-76
2023/09/15 06:13:06;;;;;;;5.93;3.43;;;;;;;10.03;100.00;101388.00;4949461;28;20274;-76
2023/09/15 06:15:34;;;;;;;4.90;3.40;;;;;;;10.12;100.00;101383.19;4950337;28;20220;-76
2023/09/15 06:18:00;;;;;;;5.73;3.90;;;;;;;10.19;100.00;101388.16;4949624;28;20731;-76
2023/09/15 06:20:30;;;;;;;4.60;3.60;;;;;;;10.27;100.00;101377.97;4951686;28;20218;-76
2023/09/15 06:22:58;;;;;;;5.73;4.03;;;;;;;10.37;100.00;101389.91;4948039;28;20612;-76
2023/09/15 06:25:25;;;;;;;6.20;3.73;;;;;;;10.44;100.00;101387.78;4952151;28;20201;-76
2023/09/15 06:27:51;;;;;;;7.30;4.33;;;;;;;10.52;100.00;101382.06;4967088;28;20232;-76
2023/09/15 06:30:18;;;;;;;7.43;3.83;;;;;;;10.60;100.00;101377.19;4951690;28;20220;-76
2023/09/15 06:32:44;;;;;;;6.93;4.10;;;;;;;10.67;100.00;101381.25;4958524;28;20207;-76
2023/09/15 06:35:13;;;;;;;5.53;3.20;;;;;;;10.74;100.00;101382.69;4964043;28;20216;-76
2023/09/15 06:37:39;;;;;;;5.60;3.30;;;;;;;10.82;100.00;101391.13;4946004;28;20236;-76
2023/09/15 06:40:08;;;;;;;4.37;2.70;;;;;;;10.91;100.00;101380.00;4943985;28;20202;-76
2023/09/15 06:42:35;;;;;;;4.17;2.93;;;;;;;10.99;100.00;101384.88;4963774;28;20230;-76
2023/09/15 06:45:02;;;;;;;11.63;2.87;;;;;;;11.04;100.00;101373.06;4948043;28;20214;-76
2023/09/15 06:47:29;;;;;;;10.90;3.50;;;;;;;11.14;100.00;101376.06;4948032;28;20300;-73
2023/09/15 06:49:55;;;;;;;5.03;3.30;;;;;;;11.23;100.00;101370.25;4947628;28;20219;-73
2023/09/15 06:52:22;;;;;;;7.47;2.87;;;;;;;11.32;100.00;101363.53;4949906;28;20214;-73
2023/09/15 06:54:48;;;;;;;5.63;3.13;;;;;;;11.41;100.00;101369.25;4947357;28;20207;-73
2023/09/15 06:57:16;;;;;;;3.63;3.10;;;;;;;11.53;100.00;101366.81;4949052;28;20210;-73
2023/09/15 06:59:43;;;;;;;6.77;3.03;;;;;;;11.62;100.00;101364.53;4945804;28;20212;-72
2023/09/15 07:02:09;;;;;;;7.20;4.10;;;;;;;11.71;100.00;101365.78;4947168;28;20235;-72
2023/09/15 07:04:36;;;;;;;6.33;3.77;;;;;;;11.76;100.00;101369.09;4945898;28;20582;-74
2023/09/15 07:07:02;;;;;;;4.70;3.97;;;;;;;11.86;100.00;101372.09;4944843;28;20311;-74
2023/09/15 07:09:29;;;;;;;8.23;4.37;;;;;;;11.94;100.00;101372.53;4950258;28;20244;-73
2023/09/15 07:11:55;;;;;;;10.00;4.30;;;;;;;12.05;100.00;101372.75;4944984;28;20212;-73
2023/09/15 07:14:23;;;;;;;7.00;4.00;;;;;;;12.18;100.00;101376.47;4946230;28;20224;-72
2023/09/15 07:16:49;;;;;;;6.63;3.60;;;;;;;12.27;100.00;101373.22;4946774;28;20218;-73
2023/09/15 07:19:16;;;;;;;7.87;4.40;;;;;;;12.35;100.00;101370.97;4948504;28;20229;-73
2023/09/15 07:21:44;;;;;;;10.53;3.60;;;;;;;12.48;100.00;101374.63;4941789;28;20263;-73
2023/09/15 07:24:10;;;;;;;8.47;3.70;;;;;;;12.62;100.00;101373.78;4947013;28;20723;-73
2023/09/15 07:26:37;;;;;;;6.03;3.53;;;;;;;12.77;100.00;101366.66;4949137;28;20209;-73
2023/09/15 07:29:04;;;;;;;6.63;3.97;;;;;;;12.90;100.00;101374.81;4949269;28;20316;-73
2023/09/15 07:31:34;;;;;;;4.57;3.93;;;;;;;13.01;99.41;101378.53;4948265;28;20286;-72
2023/09/15 07:34:01;;;;;;;5.33;3.53;;;;;;;13.11;98.17;101373.44;4944350;28;20251;-73
2023/09/15 07:36:27;;;;;;;6.70;3.73;;;;;;;13.23;97.08;101366.53;4949662;28;20205;-74
2023/09/15 07:38:54;;;;;;;5.47;3.20;;;;;;;13.34;96.42;101369.38;4945668;28;20272;-73
2023/09/15 07:41:20;;;;;;;7.63;3.93;;;;;;;13.51;96.02;101374.50;4948540;28;20705;-74
2023/09/15 07:43:47;;;;;;;6.40;3.00;;;;;;;13.64;93.86;101374.56;4947012;28;20212;-74
2023/09/15 07:46:14;;;;;;;4.93;3.43;;;;;;;13.77;93.33;101373.69;4945694;28;20213;-74
2023/09/15 07:48:42;;;;;;;7.07;3.57;;;;;;;13.92;92.64;101366.47;4945423;28;20790;-74
2023/09/15 07:51:11;;;;;;;8.73;3.40;;;;;;;14.08;92.52;101371.66;4946892;28;20600;-72
2023/09/15 07:53:37;;;;;;;5.07;3.13;;;;;;;14.22;90.70;101372.47;4944665;28;20210;-73
2023/09/15 07:56:04;;;;;;;5.00;3.53;;;;;;;14.31;90.29;101365.63;4945240;28;20235;-72
2023/09/15 07:58:30;;;;;;;7.80;3.30;;;;;;;14.44;88.27;101361.19;4945794;28;20265;-72
2023/09/15 08:00:58;;;;;;;4.10;3.00;;;;;;;14.53;87.58;101363.22;4954423;28;20203;-74
2023/09/15 08:03:24;;;;;;;8.60;3.73;;;;;;;14.70;88.31;101355.84;4949001;28;20225;-74
2023/09/15 08:05:52;;;;;;;7.40;3.60;;;;;;;14.85;87.04;101350.28;4947474;28;20214;-74
2023/09/15 08:08:18;;;;;;;3.77;3.23;;;;;;;15.01;86.89;101343.84;4961416;28;20229;-73
2023/09/15 08:10:46;;;;;;;5.63;3.63;;;;;;;15.14;85.79;101353.59;4959635;28;20215;-72
2023/09/15 08:13:12;;;;;;;5.93;3.10;;;;;;;15.29;85.23;101351.63;4951330;28;20238;-73
2023/09/15 08:15:39;;;;;;;4.40;2.83;;;;;;;15.40;84.00;101346.38;4960201;28;20686;-72
2023/09/15 08:18:05;;;;;;;5.50;3.30;;;;;;;15.53;83.11;101352.56;4953066;28;20237;-74
2023/09/15 08:20:32;;;;;;;5.57;3.23;;;;;;;15.65;83.13;101358.00;4948343;28;20215;-74
2023/09/15 08:23:00;;;;;;;6.10;3.10;;;;;;;15.79;83.18;101358.72;4944600;28;20673;-74
2023/09/15 08:25:26;;;;;;;7.20;3.10;;;;;;;15.94;82.05;101356.75;4958421;28;20588;-74
2023/09/15 08:27:53;;;;;;;4.07;2.83;;;;;;;16.08;81.11;101350.31;4955918;28;20224;-74
2023/09/15 08:30:22;;;;;;;8.37;3.33;;;;;;;16.23;80.78;101350.03;4944198;28;20221;-74
2023/09/15 08:32:49;;;;;;;7.53;3.30;;;;;;;16.43;81.85;101353.03;4968597;28;20212;-73
2023/09/15 08:35:15;;;;;;;5.10;3.73;;;;;;;16.58;80.74;101352.69;4963683;28;20212;-74
2023/09/15 08:37:41;;;;;;;8.47;3.43;;;;;;;16.73;80.69;101356.06;4946798;28;20232;-73
2023/09/15 08:40:10;;;;;;;6.63;3.70;;;;;;;16.95;80.82;101344.47;4951709;28;20207;-74
2023/09/15 08:42:37;;;;;;;3.33;2.67;;;;;;;17.13;78.23;101347.53;4944489;28;20713;-73
2023/09/15 08:45:06;;;;;;;5.53;3.27;;;;;;;17.24;77.81;101345.69;4946886;28;20224;-74
2023/09/15 08:47:34;;;;;;;5.20;2.80;;;;;;;17.39;75.68;101343.59;4945775;28;20903;-74
2023/09/15 08:50:03;;;;;;;5.77;3.00;;;;;;;17.48;76.28;101347.38;4958497;28;20218;-74
2023/09/15 08:52:30;;;;;;;6.00;2.90;;;;;;;17.56;75.47;101336.84;4953444;28;20358;-74
2023/09/15 08:54:57;;;;;;;4.93;2.50;;;;;;;17.64;75.45;101343.34;4946483;28;21082;-74
2023/09/15 08:57:26;;;;;;;5.07;3.00;;;;;;;17.80;75.31;101336.69;4953809;28;20215;-75
2023/09/15 08:59:53;;;;;;;3.70;2.90;;;;;;;17.91;74.46;101334.84;4965899;28;20212;-74
2023/09/15 09:02:20;;;;;;;4.00;2.60;;;;;;;18.02;73.31;101334.78;4959164;28;20724;-75
2023/09/15 09:04:46;;;;;;;4.33;2.80;;;;;;;18.16;73.61;101330.06;4962908;28;20220;-73
2023/09/15 09:07:14;;;;;;;3.77;3.10;;;;;;;18.31;72.97;101331.47;4945514;28;20397;-74
2023/09/15 09:09:41;;;;;;;4.30;2.60;;;;;;;18.42;72.43;101317.09;4956655;28;20221;-75
2023/09/15 09:12:08;;;;;;;3.57;2.67;;;;;;;18.49;70.42;101321.81;4966143;28;20205;-74
2023/09/15 09:14:36;;;;;;;3.63;2.40;;;;;;;18.58;70.43;101326.41;4956719;28;20221;-73
2023/09/15 09:17:04;;;;;;;5.17;2.83;;;;;;;18.71;70.56;101319.00;4959370;28;20218;-74
2023/09/15 09:19:37;;;;;;;4.83;2.60;;;;;;;18.87;69.98;101307.72;4945457;28;20609;-75
2023/09/15 09:22:04;;;;;;;3.43;2.70;;;;;;;19.02;69.95;101302.81;4950711;28;20739;-74
2023/09/15 09:24:31;;;;;;;4.73;2.50;;;;;;;19.18;69.67;101303.16;4959592;28;20213;-75
2023/09/15 09:26:57;;;;;;;4.60;2.47;;;;;;;19.23;67.55;101306.31;4955229;28;20211;-74
2023/09/15 09:29:26;;;;;;;3.70;2.50;;;;;;;19.33;68.53;101299.09;4952491;28;20230;-74
2023/09/15 09:31:55;;;;;;;4.30;2.20;;;;;;;19.47;67.70;101300.56;4943928;28;20207;-76
2023/09/15 09:34:22;;;;;;;3.70;2.90;;;;;;;19.61;67.18;101296.63;4954152;28;20198;-73
2023/09/15 09:36:49;;;;;;;4.20;2.97;;;;;;;19.78;66.66;101298.63;4960289;28;20226;-74
2023/09/15 09:39:15;;;;;;;5.05;2.70;;;;;;;19.92;64.84;101289.25;4956800;28;20229;-73
2023/09/15 09:41:44;;;;;;;3.33;2.13;;;;;;;20.05;64.67;101295.25;4944877;28;20298;-76
2023/09/15 09:44:12;;;;;;;4.35;2.65;;;;;;;20.07;64.65;101294.09;4963682;28;20233;-75
2023/09/15 09:46:40;;;;;;;4.13;2.60;;;;;;;20.20;65.18;101288.41;4954511;28;20208;-75
2023/09/15 09:49:09;;;;;;;5.03;2.30;;;;;;;20.32;64.43;101292.66;4946402;28;20232;-74
2023/09/15 09:51:36;;;;;;;3.58;2.35;;;;;;;20.38;62.11;101288.56;4941944;28;20205;-74
2023/09/15 09:54:03;;;;;;;3.38;2.28;;;;;;;20.43;61.90;101278.13;4941658;28;20212;-75
2023/09/15 09:56:31;;;;;;;2.75;1.90;;;;;;;20.54;62.79;101269.88;4955764;28;20503;-74
2023/09/15 09:59:09;;;;;;;3.22;2.33;;;;;;;20.64;61.58;101265.25;4944948;28;20218;-77
2023/09/15 10:01:36;;;;;;;3.25;2.10;;;;;;;20.71;61.57;101268.25;4942672;28;20239;-77
2023/09/15 10:04:05;;;;;;;3.40;2.08;;;;;;;20.77;60.50;101256.84;4953079;28;20312;-77
2023/09/15 10:06:34;;;;;;;3.60;2.30;;;;;;;20.88;61.25;101261.19;4947089;28;20685;-77
2023/09/15 10:09:01;;;;;;;4.53;2.55;;;;;;;20.99;60.92;101258.28;4953565;28;20239;-77
2023/09/15 10:11:28;;;;;;;4.78;2.05;;;;;;;21.09;61.07;101259.13;4944040;28;20586;-76
2023/09/15 10:13:55;;;;;;;3.13;2.10;;;;;;;21.12;59.05;101253.41;4941969;28;20685;-77
2023/09/15 10:16:23;;;;;;;2.63;1.70;;;;;;;21.21;59.56;101254.38;4944084;28;20281;-76
2023/09/15 10:18:51;;;;;;;3.78;2.38;;;;;;;21.28;58.91;101253.63;4942345;28;20233;-76
2023/09/15 10:21:17;;;;;;;5.32;2.17;;;;;;;21.36;58.10;101250.13;4944217;28;20216;-77
2023/09/15 10:23:46;;;;;;;3.80;1.92;;;;;;;21.42;57.19;101244.97;4945492;28;20233;-77
2023/09/15 10:26:12;;;;;;;3.80;2.35;;;;;;;21.49;57.64;101245.22;4944801;28;20240;-77
2023/09/15 10:28:45;;;;;;;2.58;2.00;;;;;;;21.57;57.35;101239.00;4956513;28;20229;-77
2023/09/15 10:31:12;;;;;;;2.55;1.83;;;;;;;21.65;56.79;101241.81;4939831;28;20209;-76
2023/09/15 10:33:39;;;;;;;3.10;2.05;;;;;;;21.73;56.93;101244.59;4945825;28;20205;-77
2023/09/15 10:36:06;;;;;;;4.57;2.08;;;;;;;21.74;56.84;101243.59;4955572;28;20240;-76
2023/09/15 10:38:34;;;;;;;2.92;2.08;;;;;;;21.78;57.31;101242.28;4944924;28;20228;-76
2023/09/15 10:41:05;;;;;;;3.13;2.20;;;;;;;21.90;57.78;101237.47;4951836;28;20216;-77
2023/09/15 10:43:32;;;;;;;3.28;2.15;;;;;;;21.93;55.60;101226.31;4944786;28;20268;-78
2023/09/15 10:46:02;;;;;;;2.60;2.03;;;;;;;21.95;55.44;101225.16;4953653;28;20262;-72
2023/09/15 10:48:37;;;;;;;2.83;2.28;;;;;;;22.07;56.71;101220.34;4970352;28;20254;-76
2023/09/15 10:51:07;;;;;;;2.78;2.00;;;;;;;22.11;56.18;101225.31;4952298;28;20222;-76
2023/09/15 10:53:43;;;;;;;2.75;2.20;;;;;;;22.18;56.35;101220.09;4946469;28;20209;-76
2023/09/15 10:56:11;;;;;;;5.55;2.10;;;;;;;22.25;55.47;101220.31;4953754;28;20739;-77
2023/09/15 10:58:39;;;;;;;3.03;2.28;;;;;;;22.32;54.75;101215.97;4944582;28;20304;-76
2023/09/15 11:01:06;;;;;;;3.13;2.13;;;;;;;22.39;54.29;101211.59;4948972;28;20208;-76
2023/09/15 11:03:33;;;;;;;3.47;2.17;;;;;;;22.46;55.44;101223.50;4947399;28;20236;-76
2023/09/15 11:05:59;;;;;;;4.15;2.17;;;;;;;22.51;53.84;101221.16;4947137;28;20215;-76
2023/09/15 11:08:26;;;;;;;4.10;2.20;;;;;;;22.54;53.46;101220.84;4951863;28;20247;-76
2023/09/15 11:10:58;;;;;;;2.80;2.03;;;;;;;22.57;53.61;101214.25;4944193;28;20898;-76
2023/09/15 11:13:26;;;;;;;4.47;2.55;;;;;;;22.58;52.58;101214.06;4946596;28;20245;-77
2023/09/15 11:15:53;;;;;;;4.80;2.67;;;;;;;22.58;53.96;101208.63;4947156;28;20231;-76
2023/09/15 11:18:19;;;;;;;4.25;2.30;;;;;;;22.59;54.21;101206.78;4942964;28;20259;-76
2023/09/15 11:20:46;;;;;;;2.72;2.25;;;;;;;22.65;54.47;101207.00;4947228;28;20681;-77
2023/09/15 11:23:13;;;;;;;2.70;1.98;;;;;;;22.70;53.72;101193.78;4950920;28;20230;-76
2023/09/15 11:25:39;;;;;;;3.60;2.15;;;;;;;22.78;54.21;101190.28;4950827;28;20705;-76